RYR3848 EGSS-LERS
Flight info
| Callsign | RYR3848 |
|---|---|
| Flight time | 2h 19m |
| Altitude | 33000 |
| Route | NUGBO M183 SILVA Q41 COWLY UT71 VAPID UN859 SOPIL DCT BALAN DCT EVPOK DCT NARAK DCT GAI DCT LOMRA DCT ROCAN DCT PUMAL/N0392F230 N31 BERGA |
| Aircraft | B738/M-SDE2E3FGHIRWXY/LB1 |
Departure
| Time | 2026-05-06 13:57 |
|---|---|
| Airport | London Stansted Airport (EGSS) |
Arrival
| Time | 2026-05-06 16:16 |
|---|---|
| Airport | Reus Airport (LERS) |
| Time | Latitude | Longitude | Altitude | Speed | Heading |
|---|---|---|---|---|---|
| 2026-05-06 12:43 | 51.88862 | 0.25341 | 361 ft | 0 kts | 42° |
| 2026-05-06 13:37 | 51.88856 | 0.25334 | 358 ft | 4 kts | 42° |
| 2026-05-06 13:38 | 51.88840 | 0.25309 | 361 ft | 3 kts | 42° |
| 2026-05-06 13:38 | 51.88820 | 0.25293 | 356 ft | 4 kts | 343° |
| 2026-05-06 13:38 | 51.88801 | 0.25314 | 359 ft | 4 kts | 313° |
| 2026-05-06 13:38 | 51.88789 | 0.25334 | 351 ft | 0 kts | 313° |
| 2026-05-06 13:44 | 51.88806 | 0.25305 | 357 ft | 5 kts | 313° |
| 2026-05-06 13:45 | 51.88830 | 0.25262 | 355 ft | 5 kts | 313° |
| 2026-05-06 13:45 | 51.88883 | 0.25172 | 351 ft | 5 kts | 313° |
| 2026-05-06 13:45 | 51.88908 | 0.25127 | 351 ft | 5 kts | 313° |
| 2026-05-06 13:46 | 51.88933 | 0.25084 | 354 ft | 5 kts | 313° |
| 2026-05-06 13:46 | 51.88958 | 0.25040 | 357 ft | 5 kts | 308° |
| 2026-05-06 13:46 | 51.88968 | 0.24987 | 356 ft | 5 kts | 264° |
| 2026-05-06 13:46 | 51.88948 | 0.24935 | 355 ft | 7 kts | 225° |
| 2026-05-06 13:47 | 51.88903 | 0.24868 | 354 ft | 10 kts | 222° |
| 2026-05-06 13:47 | 51.88848 | 0.24787 | 354 ft | 11 kts | 223° |
| 2026-05-06 13:47 | 51.88796 | 0.24708 | 351 ft | 10 kts | 223° |
| 2026-05-06 13:47 | 51.88742 | 0.24627 | 357 ft | 11 kts | 223° |
| 2026-05-06 13:48 | 51.88677 | 0.24530 | 347 ft | 13 kts | 222° |
| 2026-05-06 13:48 | 51.88613 | 0.24433 | 349 ft | 13 kts | 222° |
| 2026-05-06 13:48 | 51.88547 | 0.24334 | 344 ft | 13 kts | 224° |
| 2026-05-06 13:48 | 51.88482 | 0.24234 | 349 ft | 13 kts | 224° |
| 2026-05-06 13:49 | 51.88418 | 0.24140 | 348 ft | 12 kts | 222° |
| 2026-05-06 13:49 | 51.88353 | 0.24042 | 346 ft | 14 kts | 223° |
| 2026-05-06 13:49 | 51.88285 | 0.23940 | 344 ft | 13 kts | 223° |
| 2026-05-06 13:49 | 51.88220 | 0.23841 | 347 ft | 13 kts | 223° |
| 2026-05-06 13:50 | 51.88148 | 0.23735 | 337 ft | 14 kts | 222° |
| 2026-05-06 13:50 | 51.88076 | 0.23628 | 340 ft | 14 kts | 223° |
| 2026-05-06 13:50 | 51.88007 | 0.23524 | 340 ft | 13 kts | 223° |
| 2026-05-06 13:50 | 51.87941 | 0.23424 | 338 ft | 13 kts | 223° |
| 2026-05-06 13:51 | 51.87877 | 0.23327 | 337 ft | 13 kts | 223° |
| 2026-05-06 13:51 | 51.87814 | 0.23231 | 340 ft | 12 kts | 223° |
| 2026-05-06 13:51 | 51.87753 | 0.23140 | 335 ft | 10 kts | 221° |
| 2026-05-06 13:51 | 51.87728 | 0.23054 | 339 ft | 9 kts | 281° |
| 2026-05-06 13:52 | 51.87763 | 0.22978 | 335 ft | 8 kts | 311° |
| 2026-05-06 13:52 | 51.87776 | 0.22893 | 339 ft | 8 kts | 252° |
| 2026-05-06 13:52 | 51.87733 | 0.22816 | 337 ft | 11 kts | 223° |
| 2026-05-06 13:52 | 51.87676 | 0.22729 | 336 ft | 11 kts | 224° |
| 2026-05-06 13:53 | 51.87618 | 0.22641 | 333 ft | 12 kts | 221° |
| 2026-05-06 13:53 | 51.87552 | 0.22547 | 329 ft | 14 kts | 223° |
| 2026-05-06 13:53 | 51.87487 | 0.22444 | 330 ft | 13 kts | 223° |
| 2026-05-06 13:53 | 51.87424 | 0.22350 | 327 ft | 12 kts | 223° |
| 2026-05-06 13:54 | 51.87402 | 0.22230 | 326 ft | 12 kts | 282° |
| 2026-05-06 13:54 | 51.87436 | 0.22144 | 323 ft | 7 kts | 314° |
| 2026-05-06 13:54 | 51.87438 | 0.22141 | 323 ft | 0 kts | 314° |
| 2026-05-06 13:55 | 51.87438 | 0.22140 | 323 ft | 1 kts | 314° |
| 2026-05-06 13:55 | 51.87464 | 0.22098 | 322 ft | 11 kts | 314° |
| 2026-05-06 13:55 | 51.87511 | 0.22034 | 322 ft | 8 kts | 343° |
| 2026-05-06 13:55 | 51.87561 | 0.22072 | 322 ft | 8 kts | 43° |
| 2026-05-06 13:56 | 51.87608 | 0.22145 | 322 ft | 19 kts | 43° |
| 2026-05-06 13:56 | 51.87887 | 0.22558 | 332 ft | 89 kts | 42° |
| 2026-05-06 13:56 | 51.88504 | 0.23466 | 350 ft | 148 kts | 40° |
| 2026-05-06 13:56 | 51.89303 | 0.24684 | 855 ft | 161 kts | 40° |
| 2026-05-06 13:57 | 51.90125 | 0.25979 | 1634 ft | 167 kts | 39° |
| 2026-05-06 13:57 | 51.90999 | 0.27293 | 2234 ft | 183 kts | 39° |
| 2026-05-06 13:57 | 51.91987 | 0.28742 | 2658 ft | 196 kts | 36° |
| 2026-05-06 13:57 | 51.93239 | 0.29644 | 3114 ft | 202 kts | 7° |
| 2026-05-06 13:58 | 51.94646 | 0.29548 | 3721 ft | 209 kts | 343° |
| 2026-05-06 13:58 | 51.95923 | 0.28389 | 4276 ft | 219 kts | 319° |
| 2026-05-06 13:58 | 51.96735 | 0.26323 | 4516 ft | 220 kts | 292° |
| 2026-05-06 13:58 | 51.97076 | 0.23918 | 4794 ft | 223 kts | 283° |
| 2026-05-06 13:59 | 51.97346 | 0.21395 | 5060 ft | 225 kts | 283° |
| 2026-05-06 13:59 | 51.97610 | 0.18879 | 5281 ft | 232 kts | 282° |
| 2026-05-06 13:59 | 51.97801 | 0.17082 | 5273 ft | 256 kts | 282° |
| 2026-05-06 13:59 | 51.98222 | 0.13181 | 5239 ft | 268 kts | 281° |
| 2026-05-06 14:00 | 51.98439 | 0.11171 | 5241 ft | 268 kts | 281° |
| 2026-05-06 14:00 | 51.98761 | 0.08192 | 5226 ft | 269 kts | 282° |
| 2026-05-06 14:00 | 51.98919 | 0.05166 | 5214 ft | 272 kts | 265° |
| 2026-05-06 14:00 | 51.98532 | 0.02162 | 5240 ft | 272 kts | 258° |
| 2026-05-06 14:01 | 51.98112 | -0.00839 | 5233 ft | 273 kts | 260° |
| 2026-05-06 14:01 | 51.97713 | -0.03846 | 5230 ft | 272 kts | 260° |
| 2026-05-06 14:01 | 51.97322 | -0.06852 | 5222 ft | 272 kts | 261° |
| 2026-05-06 14:01 | 51.96933 | -0.09843 | 5223 ft | 270 kts | 259° |
| 2026-05-06 14:02 | 51.96544 | -0.12831 | 5296 ft | 273 kts | 260° |
| 2026-05-06 14:02 | 51.96149 | -0.15857 | 5956 ft | 276 kts | 260° |
| 2026-05-06 14:02 | 51.95754 | -0.18884 | 6835 ft | 274 kts | 260° |
| 2026-05-06 14:02 | 51.95357 | -0.21916 | 7604 ft | 276 kts | 261° |
| 2026-05-06 14:03 | 51.94960 | -0.24948 | 8428 ft | 275 kts | 260° |
| 2026-05-06 14:03 | 51.94559 | -0.28002 | 9215 ft | 277 kts | 261° |
| 2026-05-06 14:03 | 51.94159 | -0.31051 | 9973 ft | 280 kts | 260° |
| 2026-05-06 14:03 | 51.93744 | -0.34209 | 10364 ft | 295 kts | 260° |
| 2026-05-06 14:04 | 51.93301 | -0.37579 | 10544 ft | 317 kts | 260° |
| 2026-05-06 14:04 | 51.92827 | -0.41174 | 10832 ft | 332 kts | 260° |
| 2026-05-06 14:04 | 51.92335 | -0.44884 | 11368 ft | 340 kts | 259° |
| 2026-05-06 14:04 | 51.91832 | -0.48655 | 12082 ft | 343 kts | 259° |
| 2026-05-06 14:05 | 51.91327 | -0.52433 | 12802 ft | 347 kts | 259° |
| 2026-05-06 14:05 | 51.90813 | -0.56267 | 13626 ft | 348 kts | 259° |
| 2026-05-06 14:05 | 51.90296 | -0.60118 | 14323 ft | 351 kts | 259° |
| 2026-05-06 14:05 | 51.89777 | -0.63975 | 15045 ft | 354 kts | 259° |
| 2026-05-06 14:06 | 51.89248 | -0.67900 | 15692 ft | 358 kts | 259° |
| 2026-05-06 14:06 | 51.88713 | -0.71862 | 16359 ft | 362 kts | 259° |
| 2026-05-06 14:06 | 51.88170 | -0.75868 | 17044 ft | 366 kts | 259° |
| 2026-05-06 14:06 | 51.87621 | -0.79908 | 17745 ft | 368 kts | 259° |
| 2026-05-06 14:07 | 51.87069 | -0.83965 | 18389 ft | 373 kts | 258° |
| 2026-05-06 14:07 | 51.86506 | -0.88088 | 18923 ft | 377 kts | 258° |
| 2026-05-06 14:07 | 51.85938 | -0.92190 | 19534 ft | 378 kts | 256° |
| 2026-05-06 14:07 | 51.84889 | -0.96155 | 20156 ft | 383 kts | 236° |
| 2026-05-06 14:08 | 51.83069 | -0.99245 | 20736 ft | 390 kts | 219° |
| 2026-05-06 14:08 | 51.80670 | -1.01471 | 20967 ft | 399 kts | 201° |
| 2026-05-06 14:08 | 51.77958 | -1.02450 | 21008 ft | 401 kts | 191° |
| 2026-05-06 14:08 | 51.75223 | -1.03112 | 21029 ft | 405 kts | 190° |
| 2026-05-06 14:09 | 51.72418 | -1.03763 | 21487 ft | 408 kts | 190° |
| 2026-05-06 14:09 | 51.69614 | -1.04438 | 22228 ft | 406 kts | 191° |
| 2026-05-06 14:09 | 51.66822 | -1.05144 | 22849 ft | 407 kts | 191° |
| 2026-05-06 14:09 | 51.64020 | -1.05869 | 23359 ft | 411 kts | 191° |
| 2026-05-06 14:10 | 51.61176 | -1.06503 | 23796 ft | 415 kts | 186° |
| 2026-05-06 14:10 | 51.58266 | -1.06517 | 24223 ft | 420 kts | 180° |
| 2026-05-06 14:10 | 51.55347 | -1.06302 | 24653 ft | 422 kts | 179° |
| 2026-05-06 14:10 | 51.52394 | -1.06063 | 25047 ft | 426 kts | 179° |
| 2026-05-06 14:11 | 51.49426 | -1.05842 | 25441 ft | 428 kts | 179° |
| 2026-05-06 14:11 | 51.46444 | -1.05647 | 25846 ft | 430 kts | 180° |
| 2026-05-06 14:11 | 51.43440 | -1.05470 | 26230 ft | 433 kts | 180° |
| 2026-05-06 14:11 | 51.40424 | -1.05302 | 26619 ft | 435 kts | 180° |
| 2026-05-06 14:12 | 51.37387 | -1.05133 | 27001 ft | 438 kts | 180° |
| 2026-05-06 14:12 | 51.34294 | -1.04962 | 27370 ft | 440 kts | 180° |
| 2026-05-06 14:12 | 51.31261 | -1.04802 | 27687 ft | 443 kts | 179° |
| 2026-05-06 14:12 | 51.28173 | -1.04619 | 27999 ft | 447 kts | 177° |
| 2026-05-06 14:13 | 51.25085 | -1.03864 | 28325 ft | 451 kts | 168° |
| 2026-05-06 14:13 | 51.22048 | -1.02285 | 28665 ft | 456 kts | 158° |
| 2026-05-06 14:13 | 51.19191 | -1.00210 | 29012 ft | 458 kts | 156° |
| 2026-05-06 14:13 | 51.16313 | -0.98048 | 29528 ft | 456 kts | 156° |
| 2026-05-06 14:14 | 51.13457 | -0.95903 | 30052 ft | 454 kts | 156° |
| 2026-05-06 14:14 | 51.10597 | -0.93782 | 30407 ft | 454 kts | 156° |
| 2026-05-06 14:14 | 51.07807 | -0.91740 | 30856 ft | 451 kts | 156° |
| 2026-05-06 14:14 | 51.04918 | -0.89646 | 31326 ft | 448 kts | 156° |
| 2026-05-06 14:15 | 51.02079 | -0.87598 | 31655 ft | 449 kts | 157° |
| 2026-05-06 14:15 | 50.99231 | -0.85551 | 31914 ft | 450 kts | 157° |
| 2026-05-06 14:15 | 50.96369 | -0.83494 | 32219 ft | 451 kts | 157° |
| 2026-05-06 14:15 | 50.93522 | -0.81450 | 32616 ft | 449 kts | 157° |
| 2026-05-06 14:16 | 50.90680 | -0.79410 | 32972 ft | 448 kts | 157° |
| 2026-05-06 14:16 | 50.87824 | -0.77365 | 32956 ft | 453 kts | 157° |
| 2026-05-06 14:16 | 50.82256 | -0.72673 | 32979 ft | 453 kts | 149° |
| 2026-05-06 14:17 | 50.77004 | -0.67219 | 32972 ft | 451 kts | 148° |
| 2026-05-06 14:17 | 50.71734 | -0.61731 | 32972 ft | 450 kts | 148° |
| 2026-05-06 14:18 | 50.66602 | -0.56485 | 32978 ft | 449 kts | 148° |
| 2026-05-06 14:18 | 50.61356 | -0.51178 | 32963 ft | 448 kts | 148° |
| 2026-05-06 14:19 | 50.56113 | -0.45896 | 32974 ft | 447 kts | 148° |
| 2026-05-06 14:19 | 50.50864 | -0.40620 | 32974 ft | 447 kts | 148° |
| 2026-05-06 14:20 | 50.45630 | -0.35372 | 32971 ft | 447 kts | 148° |
| 2026-05-06 14:20 | 50.40383 | -0.30123 | 32966 ft | 447 kts | 148° |
| 2026-05-06 14:21 | 50.35133 | -0.24886 | 32978 ft | 448 kts | 148° |
| 2026-05-06 14:21 | 50.29876 | -0.19656 | 32983 ft | 448 kts | 148° |
| 2026-05-06 14:22 | 50.24598 | -0.14419 | 32975 ft | 449 kts | 148° |
| 2026-05-06 14:22 | 50.19317 | -0.09190 | 32978 ft | 450 kts | 148° |
| 2026-05-06 14:23 | 50.14032 | -0.03972 | 32981 ft | 450 kts | 148° |
| 2026-05-06 14:23 | 50.08524 | 0.00638 | 32979 ft | 450 kts | 161° |
| 2026-05-06 14:24 | 50.02479 | 0.03101 | 32977 ft | 449 kts | 167° |
| 2026-05-06 14:24 | 49.96414 | 0.05370 | 32972 ft | 449 kts | 167° |
| 2026-05-06 14:25 | 49.90349 | 0.07708 | 32975 ft | 449 kts | 166° |
| 2026-05-06 14:25 | 49.84305 | 0.10070 | 32982 ft | 448 kts | 167° |
| 2026-05-06 14:26 | 49.78253 | 0.12432 | 32985 ft | 448 kts | 167° |
| 2026-05-06 14:26 | 49.72201 | 0.14786 | 32988 ft | 448 kts | 166° |
| 2026-05-06 14:27 | 49.66148 | 0.17147 | 33000 ft | 448 kts | 166° |
| 2026-05-06 14:27 | 49.60103 | 0.19599 | 32993 ft | 449 kts | 166° |
| 2026-05-06 14:28 | 49.54102 | 0.22045 | 32991 ft | 450 kts | 166° |
| 2026-05-06 14:28 | 49.48049 | 0.24492 | 32987 ft | 450 kts | 166° |
| 2026-05-06 14:29 | 49.42000 | 0.26927 | 32967 ft | 450 kts | 166° |
| 2026-05-06 14:29 | 49.35944 | 0.29359 | 32966 ft | 450 kts | 166° |
| 2026-05-06 14:30 | 49.29886 | 0.31790 | 32973 ft | 450 kts | 165° |
| 2026-05-06 14:30 | 49.23841 | 0.34320 | 32968 ft | 450 kts | 165° |
| 2026-05-06 14:31 | 49.17811 | 0.36876 | 32947 ft | 450 kts | 165° |
| 2026-05-06 14:31 | 49.11763 | 0.39420 | 32947 ft | 451 kts | 165° |
| 2026-05-06 14:32 | 49.05718 | 0.41948 | 32954 ft | 451 kts | 165° |
| 2026-05-06 14:32 | 48.99672 | 0.44468 | 32965 ft | 450 kts | 165° |
| 2026-05-06 14:33 | 48.93627 | 0.46982 | 32954 ft | 450 kts | 164° |
| 2026-05-06 14:33 | 48.87585 | 0.49489 | 32952 ft | 450 kts | 165° |
| 2026-05-06 14:34 | 48.81545 | 0.51989 | 32953 ft | 450 kts | 165° |
| 2026-05-06 14:34 | 48.75506 | 0.54441 | 32938 ft | 449 kts | 165° |
| 2026-05-06 14:35 | 48.69465 | 0.56787 | 32942 ft | 449 kts | 165° |
| 2026-05-06 14:35 | 48.63401 | 0.59140 | 32954 ft | 449 kts | 165° |
| 2026-05-06 14:36 | 48.57352 | 0.61496 | 32960 ft | 449 kts | 165° |
| 2026-05-06 14:36 | 48.51300 | 0.63852 | 32950 ft | 449 kts | 165° |
| 2026-05-06 14:37 | 48.45295 | 0.66281 | 32947 ft | 450 kts | 164° |
| 2026-05-06 14:37 | 48.39223 | 0.68766 | 32939 ft | 450 kts | 164° |
| 2026-05-06 14:38 | 48.33204 | 0.71209 | 32944 ft | 451 kts | 164° |
| 2026-05-06 14:38 | 48.27108 | 0.73670 | 32942 ft | 451 kts | 164° |
| 2026-05-06 14:39 | 48.21030 | 0.76097 | 32947 ft | 452 kts | 165° |
| 2026-05-06 14:39 | 48.14993 | 0.78468 | 32945 ft | 452 kts | 165° |
| 2026-05-06 14:40 | 48.08911 | 0.80851 | 32933 ft | 453 kts | 165° |
| 2026-05-06 14:40 | 48.02804 | 0.83244 | 32940 ft | 453 kts | 165° |
| 2026-05-06 14:41 | 47.96714 | 0.85627 | 32930 ft | 453 kts | 165° |
| 2026-05-06 14:41 | 47.90613 | 0.88008 | 32932 ft | 454 kts | 165° |
| 2026-05-06 14:42 | 47.84509 | 0.90385 | 32935 ft | 453 kts | 165° |
| 2026-05-06 14:42 | 47.78385 | 0.92758 | 32939 ft | 455 kts | 165° |
| 2026-05-06 14:43 | 47.72257 | 0.95126 | 32943 ft | 455 kts | 165° |
| 2026-05-06 14:43 | 47.66131 | 0.97488 | 32929 ft | 454 kts | 165° |
| 2026-05-06 14:44 | 47.60022 | 0.99839 | 32926 ft | 454 kts | 165° |
| 2026-05-06 14:45 | 47.51852 | 1.02975 | 32930 ft | 453 kts | 165° |
| 2026-05-06 14:45 | 47.45751 | 1.05310 | 32925 ft | 453 kts | 165° |
| 2026-05-06 14:46 | 47.39581 | 1.06518 | 32933 ft | 452 kts | 181° |
| 2026-05-06 14:46 | 47.33288 | 1.06282 | 32938 ft | 452 kts | 182° |
| 2026-05-06 14:47 | 47.26990 | 1.06054 | 32933 ft | 453 kts | 181° |
| 2026-05-06 14:47 | 47.20685 | 1.05895 | 32949 ft | 453 kts | 181° |
| 2026-05-06 14:48 | 47.14366 | 1.05759 | 32931 ft | 455 kts | 181° |
| 2026-05-06 14:48 | 47.08032 | 1.05621 | 32940 ft | 455 kts | 181° |
| 2026-05-06 14:49 | 47.01706 | 1.05477 | 32929 ft | 455 kts | 181° |
| 2026-05-06 14:49 | 46.95376 | 1.05222 | 32938 ft | 455 kts | 182° |
| 2026-05-06 14:50 | 46.89057 | 1.04924 | 32935 ft | 454 kts | 182° |
| 2026-05-06 14:50 | 46.82778 | 1.04640 | 32937 ft | 454 kts | 182° |
| 2026-05-06 14:51 | 46.76422 | 1.04365 | 32931 ft | 453 kts | 182° |
| 2026-05-06 14:51 | 46.70122 | 1.04094 | 32935 ft | 453 kts | 182° |
| 2026-05-06 14:52 | 46.63867 | 1.03826 | 32927 ft | 453 kts | 182° |
| 2026-05-06 14:52 | 46.57568 | 1.03555 | 32939 ft | 453 kts | 182° |
| 2026-05-06 14:53 | 46.51271 | 1.03487 | 32920 ft | 453 kts | 175° |
| 2026-05-06 14:53 | 46.45095 | 1.05307 | 32921 ft | 454 kts | 167° |
| 2026-05-06 14:54 | 46.38952 | 1.07465 | 32929 ft | 454 kts | 167° |
| 2026-05-06 14:54 | 46.32804 | 1.09574 | 32927 ft | 455 kts | 167° |
| 2026-05-06 14:55 | 46.26632 | 1.11641 | 32912 ft | 455 kts | 167° |
| 2026-05-06 14:55 | 46.20463 | 1.13688 | 32923 ft | 455 kts | 167° |
| 2026-05-06 14:56 | 46.14306 | 1.15726 | 32918 ft | 454 kts | 168° |
| 2026-05-06 14:56 | 46.08150 | 1.17760 | 32902 ft | 453 kts | 168° |
| 2026-05-06 14:57 | 46.02003 | 1.19788 | 32906 ft | 452 kts | 168° |
| 2026-05-06 14:57 | 45.95869 | 1.21807 | 32879 ft | 451 kts | 168° |
| 2026-05-06 14:58 | 45.89764 | 1.23811 | 32885 ft | 450 kts | 168° |
| 2026-05-06 14:58 | 45.83673 | 1.25806 | 32891 ft | 449 kts | 168° |
| 2026-05-06 14:59 | 45.77576 | 1.27799 | 32880 ft | 449 kts | 168° |
| 2026-05-06 14:59 | 45.71492 | 1.29783 | 32884 ft | 449 kts | 168° |
| 2026-05-06 15:00 | 45.65405 | 1.31764 | 32923 ft | 450 kts | 168° |
| 2026-05-06 15:00 | 45.59305 | 1.33745 | 32900 ft | 453 kts | 168° |
| 2026-05-06 15:01 | 45.53160 | 1.35737 | 32913 ft | 453 kts | 168° |
| 2026-05-06 15:01 | 45.47018 | 1.37722 | 32901 ft | 453 kts | 168° |
| 2026-05-06 15:02 | 45.40867 | 1.39705 | 32910 ft | 453 kts | 168° |
| 2026-05-06 15:02 | 45.34717 | 1.41685 | 32917 ft | 454 kts | 168° |
| 2026-05-06 15:03 | 45.28556 | 1.43664 | 32908 ft | 453 kts | 168° |
| 2026-05-06 15:03 | 45.22418 | 1.45631 | 32899 ft | 453 kts | 168° |
| 2026-05-06 15:04 | 45.16269 | 1.47599 | 32907 ft | 452 kts | 169° |
| 2026-05-06 15:04 | 45.10142 | 1.49554 | 32913 ft | 451 kts | 169° |
| 2026-05-06 15:05 | 45.04025 | 1.51502 | 32918 ft | 451 kts | 169° |
| 2026-05-06 15:05 | 44.97892 | 1.53451 | 32906 ft | 452 kts | 169° |
| 2026-05-06 15:06 | 44.91771 | 1.55392 | 32898 ft | 450 kts | 170° |
| 2026-05-06 15:06 | 44.85680 | 1.57319 | 32902 ft | 448 kts | 170° |
| 2026-05-06 15:07 | 44.79609 | 1.59236 | 32912 ft | 446 kts | 170° |
| 2026-05-06 15:07 | 44.73561 | 1.61140 | 32916 ft | 445 kts | 170° |
| 2026-05-06 15:08 | 44.67509 | 1.63043 | 32912 ft | 445 kts | 170° |
| 2026-05-06 15:08 | 44.61470 | 1.64937 | 32915 ft | 445 kts | 170° |
| 2026-05-06 15:09 | 44.55435 | 1.66826 | 32922 ft | 444 kts | 170° |
| 2026-05-06 15:09 | 44.49402 | 1.68710 | 32924 ft | 444 kts | 170° |
| 2026-05-06 15:10 | 44.43367 | 1.70591 | 32941 ft | 445 kts | 170° |
| 2026-05-06 15:10 | 44.37319 | 1.72473 | 32924 ft | 444 kts | 171° |
| 2026-05-06 15:11 | 44.31288 | 1.74345 | 32924 ft | 444 kts | 171° |
| 2026-05-06 15:11 | 44.25282 | 1.75956 | 32951 ft | 442 kts | 174° |
| 2026-05-06 15:12 | 44.19201 | 1.77232 | 32929 ft | 441 kts | 175° |
| 2026-05-06 15:12 | 44.13132 | 1.78514 | 32925 ft | 441 kts | 175° |
| 2026-05-06 15:13 | 44.07085 | 1.79836 | 32940 ft | 439 kts | 175° |
| 2026-05-06 15:13 | 44.01061 | 1.81160 | 32907 ft | 438 kts | 175° |
| 2026-05-06 15:14 | 43.95047 | 1.82462 | 32943 ft | 436 kts | 177° |
| 2026-05-06 15:14 | 43.89033 | 1.83189 | 32942 ft | 433 kts | 181° |
| 2026-05-06 15:15 | 43.83009 | 1.83675 | 32943 ft | 434 kts | 181° |
| 2026-05-06 15:15 | 43.76980 | 1.84202 | 32969 ft | 434 kts | 181° |
| 2026-05-06 15:16 | 43.70947 | 1.84774 | 32966 ft | 435 kts | 181° |
| 2026-05-06 15:16 | 43.64916 | 1.85360 | 32969 ft | 434 kts | 181° |
| 2026-05-06 15:17 | 43.58906 | 1.85944 | 32971 ft | 432 kts | 181° |
| 2026-05-06 15:17 | 43.52902 | 1.86522 | 32965 ft | 433 kts | 181° |
| 2026-05-06 15:18 | 43.46888 | 1.87101 | 32938 ft | 433 kts | 181° |
| 2026-05-06 15:18 | 43.40888 | 1.87678 | 32918 ft | 431 kts | 181° |
| 2026-05-06 15:19 | 43.34932 | 1.88250 | 32941 ft | 428 kts | 182° |
| 2026-05-06 15:19 | 43.28989 | 1.88820 | 32950 ft | 428 kts | 182° |
| 2026-05-06 15:20 | 43.23056 | 1.89391 | 32947 ft | 428 kts | 182° |
| 2026-05-06 15:20 | 43.17120 | 1.89961 | 32936 ft | 427 kts | 182° |
| 2026-05-06 15:21 | 43.11188 | 1.90529 | 32941 ft | 427 kts | 182° |
| 2026-05-06 15:21 | 43.05259 | 1.91096 | 32959 ft | 427 kts | 182° |
| 2026-05-06 15:22 | 42.99346 | 1.91661 | 32926 ft | 425 kts | 182° |
| 2026-05-06 15:22 | 42.93461 | 1.92223 | 32739 ft | 425 kts | 182° |
| 2026-05-06 15:22 | 42.90521 | 1.92502 | 32328 ft | 420 kts | 182° |
| 2026-05-06 15:23 | 42.87618 | 1.92781 | 31817 ft | 416 kts | 182° |
| 2026-05-06 15:23 | 42.84783 | 1.93051 | 31371 ft | 412 kts | 183° |
| 2026-05-06 15:23 | 42.81905 | 1.93325 | 30909 ft | 407 kts | 183° |
| 2026-05-06 15:23 | 42.79133 | 1.93588 | 30480 ft | 402 kts | 183° |
| 2026-05-06 15:24 | 42.76353 | 1.93850 | 30039 ft | 399 kts | 183° |
| 2026-05-06 15:24 | 42.73598 | 1.94109 | 29525 ft | 395 kts | 183° |
| 2026-05-06 15:24 | 42.70878 | 1.94365 | 29069 ft | 390 kts | 183° |
| 2026-05-06 15:24 | 42.68192 | 1.94620 | 28606 ft | 385 kts | 182° |
| 2026-05-06 15:25 | 42.65541 | 1.94974 | 28166 ft | 384 kts | 179° |
| 2026-05-06 15:25 | 42.62895 | 1.95480 | 27689 ft | 382 kts | 177° |
| 2026-05-06 15:25 | 42.60243 | 1.96040 | 27250 ft | 379 kts | 176° |
| 2026-05-06 15:25 | 42.57680 | 1.96584 | 26781 ft | 376 kts | 177° |
| 2026-05-06 15:26 | 42.55113 | 1.97120 | 26374 ft | 372 kts | 176° |
| 2026-05-06 15:26 | 42.52560 | 1.97642 | 25943 ft | 370 kts | 176° |
| 2026-05-06 15:26 | 42.50019 | 1.98153 | 25521 ft | 368 kts | 176° |
| 2026-05-06 15:26 | 42.47489 | 1.98657 | 25094 ft | 368 kts | 176° |
| 2026-05-06 15:27 | 42.44961 | 1.99159 | 24656 ft | 366 kts | 175° |
| 2026-05-06 15:27 | 42.42443 | 1.99659 | 24236 ft | 365 kts | 175° |
| 2026-05-06 15:27 | 42.39930 | 2.00158 | 23800 ft | 364 kts | 175° |
| 2026-05-06 15:27 | 42.37427 | 2.00656 | 23334 ft | 364 kts | 176° |
| 2026-05-06 15:28 | 42.34925 | 2.01078 | 22856 ft | 361 kts | 179° |
| 2026-05-06 15:28 | 42.32435 | 2.01385 | 22402 ft | 358 kts | 180° |
| 2026-05-06 15:28 | 42.29959 | 2.01664 | 21967 ft | 356 kts | 180° |
| 2026-05-06 15:28 | 42.27507 | 2.01944 | 21573 ft | 353 kts | 179° |
| 2026-05-06 15:29 | 42.25065 | 2.02235 | 21145 ft | 351 kts | 179° |
| 2026-05-06 15:29 | 42.22643 | 2.02531 | 20740 ft | 349 kts | 179° |
| 2026-05-06 15:29 | 42.20231 | 2.02826 | 20337 ft | 347 kts | 179° |
| 2026-05-06 15:29 | 42.17864 | 2.02627 | 19907 ft | 337 kts | 199° |
| 2026-05-06 15:30 | 42.15771 | 2.01340 | 19597 ft | 328 kts | 218° |
| 2026-05-06 15:30 | 42.14024 | 1.99360 | 19263 ft | 331 kts | 225° |
| 2026-05-06 15:30 | 42.12325 | 1.97195 | 18898 ft | 341 kts | 225° |
| 2026-05-06 15:30 | 42.10600 | 1.94961 | 18518 ft | 346 kts | 225° |
| 2026-05-06 15:31 | 42.08859 | 1.92717 | 18121 ft | 346 kts | 225° |
| 2026-05-06 15:31 | 42.07117 | 1.90492 | 17693 ft | 345 kts | 225° |
| 2026-05-06 15:31 | 42.05376 | 1.88285 | 17293 ft | 343 kts | 225° |
| 2026-05-06 15:32 | 42.01914 | 1.83919 | 16541 ft | 339 kts | 225° |
| 2026-05-06 15:32 | 42.00777 | 1.82488 | 16285 ft | 338 kts | 225° |
| 2026-05-06 15:32 | 41.99066 | 1.80337 | 15925 ft | 336 kts | 225° |
| 2026-05-06 15:32 | 41.97359 | 1.78195 | 15557 ft | 335 kts | 225° |
| 2026-05-06 15:33 | 41.95645 | 1.76078 | 15198 ft | 334 kts | 222° |
| 2026-05-06 15:33 | 41.93797 | 1.74182 | 14916 ft | 333 kts | 218° |
| 2026-05-06 15:33 | 41.91907 | 1.72421 | 14672 ft | 329 kts | 217° |
| 2026-05-06 15:33 | 41.90027 | 1.70695 | 14379 ft | 326 kts | 217° |
| 2026-05-06 15:34 | 41.88166 | 1.68971 | 14021 ft | 324 kts | 217° |
| 2026-05-06 15:34 | 41.86318 | 1.67241 | 13639 ft | 323 kts | 218° |
| 2026-05-06 15:34 | 41.84484 | 1.65510 | 13219 ft | 322 kts | 218° |
| 2026-05-06 15:34 | 41.82657 | 1.63777 | 12823 ft | 321 kts | 218° |
| 2026-05-06 15:35 | 41.80845 | 1.62055 | 12446 ft | 319 kts | 218° |
| 2026-05-06 15:35 | 41.79035 | 1.60334 | 12050 ft | 318 kts | 218° |
| 2026-05-06 15:35 | 41.77238 | 1.58627 | 11684 ft | 317 kts | 218° |
| 2026-05-06 15:35 | 41.75447 | 1.56927 | 11303 ft | 315 kts | 218° |
| 2026-05-06 15:36 | 41.73638 | 1.55284 | 10984 ft | 313 kts | 211° |
| 2026-05-06 15:36 | 41.71580 | 1.54406 | 10890 ft | 311 kts | 193° |
| 2026-05-06 15:36 | 41.69460 | 1.53886 | 10751 ft | 311 kts | 193° |
| 2026-05-06 15:36 | 41.67317 | 1.53369 | 10625 ft | 315 kts | 193° |
| 2026-05-06 15:37 | 41.65148 | 1.52837 | 10504 ft | 318 kts | 193° |
| 2026-05-06 15:37 | 41.62993 | 1.52298 | 10356 ft | 311 kts | 194° |
| 2026-05-06 15:37 | 41.60895 | 1.51769 | 10216 ft | 303 kts | 194° |
| 2026-05-06 15:37 | 41.58852 | 1.51251 | 10081 ft | 294 kts | 194° |
| 2026-05-06 15:38 | 41.56878 | 1.50720 | 9973 ft | 283 kts | 200° |
| 2026-05-06 15:38 | 41.55245 | 1.49514 | 9898 ft | 265 kts | 227° |
| 2026-05-06 15:38 | 41.54175 | 1.47614 | 9787 ft | 257 kts | 244° |
| 2026-05-06 15:38 | 41.53528 | 1.45376 | 9664 ft | 255 kts | 253° |
| 2026-05-06 15:39 | 41.53019 | 1.43110 | 9555 ft | 255 kts | 255° |
| 2026-05-06 15:39 | 41.52521 | 1.40819 | 9448 ft | 260 kts | 255° |
| 2026-05-06 15:39 | 41.52022 | 1.38530 | 9313 ft | 260 kts | 255° |
| 2026-05-06 15:39 | 41.51514 | 1.36218 | 9204 ft | 259 kts | 255° |
| 2026-05-06 15:40 | 41.51003 | 1.33914 | 9094 ft | 258 kts | 254° |
| 2026-05-06 15:40 | 41.50487 | 1.31599 | 8976 ft | 257 kts | 254° |
| 2026-05-06 15:40 | 41.49983 | 1.29349 | 8890 ft | 256 kts | 254° |
| 2026-05-06 15:40 | 41.49472 | 1.27074 | 8764 ft | 256 kts | 254° |
| 2026-05-06 15:41 | 41.48962 | 1.24812 | 8671 ft | 254 kts | 254° |
| 2026-05-06 15:41 | 41.48453 | 1.22562 | 8562 ft | 254 kts | 254° |
| 2026-05-06 15:41 | 41.47944 | 1.20312 | 8468 ft | 254 kts | 254° |
| 2026-05-06 15:41 | 41.47434 | 1.18067 | 8359 ft | 254 kts | 254° |
| 2026-05-06 15:42 | 41.46923 | 1.15813 | 8254 ft | 254 kts | 254° |
| 2026-05-06 15:42 | 41.46409 | 1.13555 | 8157 ft | 255 kts | 254° |
| 2026-05-06 15:42 | 41.45895 | 1.11297 | 8035 ft | 255 kts | 255° |
| 2026-05-06 15:42 | 41.45379 | 1.09034 | 7941 ft | 254 kts | 255° |
| 2026-05-06 15:43 | 41.44864 | 1.06776 | 7826 ft | 255 kts | 254° |
| 2026-05-06 15:43 | 41.44347 | 1.04513 | 7721 ft | 254 kts | 255° |
| 2026-05-06 15:43 | 41.43833 | 1.02267 | 7628 ft | 254 kts | 254° |
| 2026-05-06 15:43 | 41.43317 | 1.00013 | 7513 ft | 255 kts | 255° |
| 2026-05-06 15:44 | 41.42801 | 0.97759 | 7418 ft | 254 kts | 255° |
| 2026-05-06 15:44 | 41.42284 | 0.95503 | 7301 ft | 255 kts | 255° |
| 2026-05-06 15:44 | 41.41766 | 0.93245 | 7201 ft | 255 kts | 255° |
| 2026-05-06 15:44 | 41.41247 | 0.90985 | 7090 ft | 255 kts | 254° |
| 2026-05-06 15:45 | 41.40727 | 0.88727 | 6985 ft | 256 kts | 255° |
| 2026-05-06 15:45 | 41.40206 | 0.86465 | 6884 ft | 255 kts | 255° |
| 2026-05-06 15:45 | 41.39659 | 0.84215 | 6767 ft | 255 kts | 248° |
| 2026-05-06 15:45 | 41.38578 | 0.82357 | 6649 ft | 258 kts | 221° |
| 2026-05-06 15:46 | 41.37000 | 0.81228 | 6570 ft | 260 kts | 203° |
| 2026-05-06 15:46 | 41.35276 | 0.80516 | 6458 ft | 259 kts | 200° |
| 2026-05-06 15:46 | 41.33553 | 0.79884 | 6345 ft | 259 kts | 198° |
| 2026-05-06 15:46 | 41.31819 | 0.79248 | 6236 ft | 258 kts | 199° |
| 2026-05-06 15:47 | 41.30095 | 0.78599 | 6099 ft | 257 kts | 199° |
| 2026-05-06 15:47 | 41.28371 | 0.77936 | 6023 ft | 258 kts | 200° |
| 2026-05-06 15:47 | 41.26662 | 0.77272 | 5905 ft | 253 kts | 200° |
| 2026-05-06 15:47 | 41.24993 | 0.76622 | 5786 ft | 247 kts | 200° |
| 2026-05-06 15:48 | 41.23364 | 0.75989 | 5699 ft | 241 kts | 200° |
| 2026-05-06 15:48 | 41.21743 | 0.75509 | 5574 ft | 237 kts | 193° |
| 2026-05-06 15:48 | 41.20124 | 0.75145 | 5502 ft | 237 kts | 192° |
| 2026-05-06 15:48 | 41.18488 | 0.74779 | 5399 ft | 240 kts | 193° |
| 2026-05-06 15:49 | 41.16832 | 0.74407 | 5319 ft | 245 kts | 191° |
| 2026-05-06 15:49 | 41.15113 | 0.74371 | 5226 ft | 249 kts | 178° |
| 2026-05-06 15:49 | 41.13375 | 0.74525 | 5121 ft | 251 kts | 180° |
| 2026-05-06 15:49 | 41.11635 | 0.74646 | 4988 ft | 249 kts | 180° |
| 2026-05-06 15:50 | 41.09922 | 0.74759 | 4886 ft | 244 kts | 177° |
| 2026-05-06 15:50 | 41.08277 | 0.75331 | 4788 ft | 246 kts | 158° |
| 2026-05-06 15:50 | 41.06710 | 0.76193 | 4714 ft | 249 kts | 159° |
| 2026-05-06 15:50 | 41.05209 | 0.77329 | 4555 ft | 253 kts | 135° |
| 2026-05-06 15:51 | 41.04373 | 0.79329 | 4475 ft | 250 kts | 99° |
| 2026-05-06 15:51 | 41.04430 | 0.81589 | 4395 ft | 245 kts | 72° |
| 2026-05-06 15:51 | 41.04991 | 0.83710 | 4305 ft | 244 kts | 66° |
| 2026-05-06 15:51 | 41.05632 | 0.85788 | 4195 ft | 243 kts | 65° |
| 2026-05-06 15:52 | 41.06257 | 0.87838 | 4048 ft | 237 kts | 65° |
| 2026-05-06 15:52 | 41.06855 | 0.89829 | 3931 ft | 231 kts | 65° |
| 2026-05-06 15:52 | 41.07444 | 0.91798 | 3712 ft | 227 kts | 66° |
| 2026-05-06 15:52 | 41.08018 | 0.93733 | 3443 ft | 224 kts | 65° |
| 2026-05-06 15:53 | 41.08578 | 0.95630 | 3189 ft | 219 kts | 66° |
| 2026-05-06 15:53 | 41.09126 | 0.97494 | 2958 ft | 216 kts | 67° |
| 2026-05-06 15:53 | 41.09668 | 0.99341 | 2705 ft | 213 kts | 67° |
| 2026-05-06 15:53 | 41.10199 | 1.01157 | 2479 ft | 210 kts | 67° |
| 2026-05-06 15:54 | 41.10722 | 1.02938 | 2242 ft | 207 kts | 68° |
| 2026-05-06 15:54 | 41.11238 | 1.04707 | 1996 ft | 203 kts | 68° |
| 2026-05-06 15:54 | 41.11737 | 1.06415 | 1728 ft | 194 kts | 68° |
| 2026-05-06 15:54 | 41.12217 | 1.08054 | 1465 ft | 188 kts | 69° |
| 2026-05-06 15:55 | 41.12676 | 1.09629 | 1256 ft | 176 kts | 70° |
| 2026-05-06 15:55 | 41.13096 | 1.11063 | 1015 ft | 160 kts | 73° |
| 2026-05-06 15:55 | 41.13486 | 1.12403 | 800 ft | 153 kts | 74° |
| 2026-05-06 15:55 | 41.13858 | 1.13706 | 596 ft | 151 kts | 72° |
| 2026-05-06 15:56 | 41.14242 | 1.14986 | 406 ft | 150 kts | 72° |
| 2026-05-06 15:56 | 41.14603 | 1.16256 | 264 ft | 140 kts | 72° |
| 2026-05-06 15:56 | 41.14939 | 1.17431 | 364 ft | 153 kts | 74° |
| 2026-05-06 15:56 | 41.15299 | 1.18910 | 1082 ft | 178 kts | 75° |
| 2026-05-06 15:57 | 41.15755 | 1.20452 | 2145 ft | 181 kts | 67° |
| 2026-05-06 15:57 | 41.16257 | 1.22045 | 2985 ft | 190 kts | 66° |
| 2026-05-06 15:57 | 41.16805 | 1.23810 | 3427 ft | 222 kts | 66° |
| 2026-05-06 15:57 | 41.17394 | 1.25755 | 4076 ft | 232 kts | 69° |
| 2026-05-06 15:58 | 41.17534 | 1.27898 | 4732 ft | 238 kts | 101° |
| 2026-05-06 15:58 | 41.16864 | 1.29883 | 4998 ft | 241 kts | 129° |
| 2026-05-06 15:58 | 41.15577 | 1.31522 | 5022 ft | 272 kts | 147° |
| 2026-05-06 15:58 | 41.13856 | 1.32668 | 5007 ft | 279 kts | 160° |
| 2026-05-06 15:59 | 41.12047 | 1.33631 | 5011 ft | 281 kts | 159° |
| 2026-05-06 15:59 | 41.10247 | 1.34645 | 4997 ft | 283 kts | 159° |
| 2026-05-06 15:59 | 41.08440 | 1.35672 | 4984 ft | 279 kts | 159° |
| 2026-05-06 15:59 | 41.06708 | 1.36663 | 4979 ft | 265 kts | 159° |
| 2026-05-06 16:00 | 41.05053 | 1.37613 | 4977 ft | 252 kts | 158° |
| 2026-05-06 16:00 | 41.03474 | 1.38515 | 4995 ft | 250 kts | 159° |
| 2026-05-06 16:00 | 41.01884 | 1.39423 | 4999 ft | 248 kts | 159° |
| 2026-05-06 16:00 | 41.00295 | 1.40330 | 5001 ft | 248 kts | 159° |
| 2026-05-06 16:01 | 40.98777 | 1.41169 | 4997 ft | 246 kts | 166° |
| 2026-05-06 16:01 | 40.97292 | 1.41213 | 5001 ft | 236 kts | 202° |
| 2026-05-06 16:01 | 40.96018 | 1.39961 | 5014 ft | 230 kts | 242° |
| 2026-05-06 16:01 | 40.95659 | 1.38090 | 5003 ft | 225 kts | 279° |
| 2026-05-06 16:02 | 40.96325 | 1.36286 | 4998 ft | 221 kts | 318° |
| 2026-05-06 16:02 | 40.97706 | 1.35434 | 5016 ft | 223 kts | 344° |
| 2026-05-06 16:02 | 40.99120 | 1.34664 | 4975 ft | 220 kts | 315° |
| 2026-05-06 16:02 | 40.99787 | 1.32919 | 4996 ft | 219 kts | 275° |
| 2026-05-06 16:03 | 40.99460 | 1.30946 | 5022 ft | 223 kts | 253° |
| 2026-05-06 16:03 | 40.99116 | 1.28947 | 5009 ft | 224 kts | 265° |
| 2026-05-06 16:03 | 40.98911 | 1.26886 | 5004 ft | 227 kts | 264° |
| 2026-05-06 16:03 | 40.98682 | 1.24808 | 5004 ft | 229 kts | 264° |
| 2026-05-06 16:04 | 40.98441 | 1.22715 | 4998 ft | 230 kts | 263° |
| 2026-05-06 16:04 | 40.98197 | 1.20634 | 4992 ft | 229 kts | 264° |
| 2026-05-06 16:04 | 40.97950 | 1.18558 | 4987 ft | 226 kts | 263° |
| 2026-05-06 16:04 | 40.97705 | 1.16518 | 4985 ft | 224 kts | 263° |
| 2026-05-06 16:05 | 40.97460 | 1.14490 | 4994 ft | 222 kts | 263° |
| 2026-05-06 16:05 | 40.97216 | 1.12477 | 4992 ft | 223 kts | 263° |
| 2026-05-06 16:05 | 40.96968 | 1.10434 | 5008 ft | 228 kts | 263° |
| 2026-05-06 16:05 | 40.96714 | 1.08349 | 5007 ft | 230 kts | 263° |
| 2026-05-06 16:06 | 40.96462 | 1.06293 | 5005 ft | 229 kts | 263° |
| 2026-05-06 16:06 | 40.96208 | 1.04220 | 4990 ft | 228 kts | 263° |
| 2026-05-06 16:06 | 40.95955 | 1.02163 | 5000 ft | 226 kts | 263° |
| 2026-05-06 16:06 | 40.95703 | 1.00123 | 5004 ft | 224 kts | 263° |
| 2026-05-06 16:07 | 40.95453 | 0.98089 | 4986 ft | 224 kts | 263° |
| 2026-05-06 16:07 | 40.95202 | 0.96057 | 4988 ft | 223 kts | 263° |
| 2026-05-06 16:07 | 40.94952 | 0.94035 | 4997 ft | 222 kts | 263° |
| 2026-05-06 16:07 | 40.94703 | 0.92027 | 4986 ft | 224 kts | 263° |
| 2026-05-06 16:08 | 40.94446 | 0.89962 | 4999 ft | 227 kts | 263° |
| 2026-05-06 16:08 | 40.94191 | 0.87908 | 4992 ft | 227 kts | 263° |
| 2026-05-06 16:08 | 40.94102 | 0.85845 | 4979 ft | 224 kts | 284° |
| 2026-05-06 16:08 | 40.94808 | 0.84060 | 4994 ft | 220 kts | 312° |
| 2026-05-06 16:09 | 40.96008 | 0.82832 | 4991 ft | 221 kts | 330° |
| 2026-05-06 16:09 | 40.97394 | 0.81906 | 4983 ft | 225 kts | 332° |
| 2026-05-06 16:09 | 40.98812 | 0.80971 | 5000 ft | 229 kts | 331° |
| 2026-05-06 16:09 | 41.00229 | 0.80029 | 5000 ft | 227 kts | 332° |
| 2026-05-06 16:10 | 41.01741 | 0.79459 | 4977 ft | 233 kts | 358° |
| 2026-05-06 16:10 | 41.03312 | 0.80046 | 4863 ft | 241 kts | 30° |
| 2026-05-06 16:10 | 41.04466 | 0.81651 | 4766 ft | 248 kts | 59° |
| 2026-05-06 16:10 | 41.05117 | 0.83739 | 4641 ft | 242 kts | 66° |
| 2026-05-06 16:11 | 41.05706 | 0.85783 | 4445 ft | 231 kts | 66° |
| 2026-05-06 16:11 | 41.06271 | 0.87731 | 4174 ft | 221 kts | 66° |
| 2026-05-06 16:11 | 41.06810 | 0.89580 | 3954 ft | 211 kts | 66° |
| 2026-05-06 16:11 | 41.07334 | 0.91378 | 3741 ft | 206 kts | 66° |
| 2026-05-06 16:12 | 41.07846 | 0.93123 | 3525 ft | 202 kts | 66° |
| 2026-05-06 16:12 | 41.08346 | 0.94822 | 3321 ft | 194 kts | 67° |
| 2026-05-06 16:12 | 41.08824 | 0.96456 | 3108 ft | 188 kts | 67° |
| 2026-05-06 16:12 | 41.09295 | 0.98064 | 2880 ft | 186 kts | 67° |
| 2026-05-06 16:13 | 41.09757 | 0.99643 | 2671 ft | 181 kts | 67° |
| 2026-05-06 16:13 | 41.10205 | 1.01172 | 2459 ft | 180 kts | 67° |
| 2026-05-06 16:13 | 41.10667 | 1.02751 | 2268 ft | 181 kts | 68° |
| 2026-05-06 16:13 | 41.11124 | 1.04312 | 2052 ft | 185 kts | 68° |
| 2026-05-06 16:14 | 41.11577 | 1.05867 | 1825 ft | 172 kts | 69° |
| 2026-05-06 16:14 | 41.11990 | 1.07279 | 1621 ft | 166 kts | 69° |
| 2026-05-06 16:14 | 41.12408 | 1.08709 | 1410 ft | 166 kts | 69° |
| 2026-05-06 16:14 | 41.12820 | 1.10117 | 1177 ft | 162 kts | 73° |
| 2026-05-06 16:15 | 41.13216 | 1.11473 | 949 ft | 153 kts | 74° |
| 2026-05-06 16:15 | 41.13599 | 1.12793 | 776 ft | 152 kts | 72° |
| 2026-05-06 16:15 | 41.13982 | 1.14103 | 569 ft | 153 kts | 71° |
| 2026-05-06 16:15 | 41.14367 | 1.15402 | 360 ft | 149 kts | 73° |
| 2026-05-06 16:16 | 41.14711 | 1.16638 | 242 ft | 130 kts | 66° |
| 2026-05-06 16:16 | 41.14897 | 1.17257 | 242 ft | 18 kts | 70° |
| 2026-05-06 16:16 | 41.14901 | 1.17272 | 242 ft | 1 kts | 69° |
| 2026-05-06 16:16 | 41.14915 | 1.17320 | 242 ft | 10 kts | 69° |
| 2026-05-06 16:17 | 41.14941 | 1.17413 | 242 ft | 11 kts | 69° |
| 2026-05-06 16:17 | 41.14968 | 1.17503 | 242 ft | 10 kts | 68° |
| 2026-05-06 16:17 | 41.14995 | 1.17574 | 242 ft | 8 kts | 49° |
| 2026-05-06 16:17 | 41.15047 | 1.17593 | 242 ft | 8 kts | 350° |
| 2026-05-06 16:18 | 41.15094 | 1.17573 | 242 ft | 4 kts | 340° |
| 2026-05-06 16:18 | 41.15097 | 1.17572 | 242 ft | 0 kts | 340° |
| 2026-05-06 16:18 | 41.15103 | 1.17569 | 242 ft | 4 kts | 340° |
| 2026-05-06 16:18 | 41.15136 | 1.17535 | 242 ft | 5 kts | 290° |
| 2026-05-06 16:19 | 41.15138 | 1.17489 | 242 ft | 5 kts | 269° |
| 2026-05-06 16:19 | 41.15131 | 1.17446 | 242 ft | 5 kts | 253° |
| 2026-05-06 16:19 | 41.15120 | 1.17404 | 242 ft | 5 kts | 250° |
| 2026-05-06 16:19 | 41.15108 | 1.17364 | 242 ft | 5 kts | 249° |
| 2026-05-06 16:20 | 41.15097 | 1.17325 | 242 ft | 5 kts | 249° |
| 2026-05-06 16:20 | 41.15088 | 1.17298 | 242 ft | 6 kts | 247° |
| 2026-05-06 16:20 | 41.15062 | 1.17214 | 242 ft | 15 kts | 247° |
| 2026-05-06 16:20 | 41.15002 | 1.17007 | 242 ft | 19 kts | 248° |
| 2026-05-06 16:21 | 41.14971 | 1.16901 | 242 ft | 18 kts | 249° |
| 2026-05-06 16:21 | 41.14925 | 1.16747 | 242 ft | 18 kts | 249° |
| 2026-05-06 16:21 | 41.14867 | 1.16549 | 242 ft | 17 kts | 249° |
| 2026-05-06 16:21 | 41.14826 | 1.16406 | 242 ft | 16 kts | 248° |
| 2026-05-06 16:22 | 41.14802 | 1.16329 | 242 ft | 8 kts | 249° |
| 2026-05-06 16:22 | 41.14784 | 1.16264 | 242 ft | 7 kts | 250° |
| 2026-05-06 16:22 | 41.14766 | 1.16202 | 242 ft | 7 kts | 249° |
| 2026-05-06 16:22 | 41.14748 | 1.16142 | 242 ft | 7 kts | 248° |
| 2026-05-06 16:23 | 41.14730 | 1.16079 | 242 ft | 7 kts | 249° |
| 2026-05-06 16:23 | 41.14712 | 1.16016 | 242 ft | 7 kts | 249° |
| 2026-05-06 16:23 | 41.14695 | 1.15959 | 242 ft | 6 kts | 249° |
| 2026-05-06 16:23 | 41.14700 | 1.15908 | 242 ft | 6 kts | 310° |
| 2026-05-06 16:24 | 41.14737 | 1.15883 | 242 ft | 6 kts | 340° |
| 2026-05-06 16:24 | 41.14755 | 1.15873 | 242 ft | 1 kts | 337° |
| 2026-05-06 16:24 | 41.14759 | 1.15871 | 242 ft | 0 kts | 337° |